KMHL/MHL METAR and TAF weather

Enter ICAO airport designator
Station Type Date Time Source
KMHL METAR 2023/02/05 13:15 UTC NOAA

KMHL 051315Z AUTO 25004KT 10SM CLR 00/M02 A3007 RMK AO2


Station Type Date Time Source
KMHL Decoded METAR 2023/02/05 13:15 UTC NOAA

Station name not available
Feb 05, 2023 - 08:15 AM EST / 2023.02.05 1315 UTC
Wind: from the WSW (250 degrees) at 5 MPH (4 KT):0
Visibility: 10 mile(s):0
Sky conditions: clear
Temperature: 32 F (0 C)
Windchill: 26 F (-3 C):1
Dew Point: 28 F (-2 C)
Relative Humidity: 86%
Pressure (altimeter): 30.07 in. Hg (1018 hPa)
ob: KMHL 051315Z AUTO 25004KT 10SM CLR 00/M02 A3007 RMK AO2
cycle: 13

Station Type Date Time Source
KMHL TAF UTC NOAA

Error!

Example: see airport list